createdAt,value
2023-12-30T00:00:33.478Z,9
2023-12-30T00:02:34.431Z,9
2023-12-30T00:04:35.455Z,9
2023-12-30T00:06:36.384Z,9
2023-12-30T00:08:37.412Z,9
2023-12-30T00:12:39.356Z,9
2023-12-30T00:16:41.533Z,9
2023-12-30T00:18:43.110Z,9
2023-12-30T00:20:43.386Z,9
2023-12-30T00:22:44.564Z,9
2023-12-30T00:24:45.581Z,9
2023-12-30T00:26:46.891Z,9
2023-12-30T00:28:47.421Z,9
2023-12-30T00:30:48.747Z,9
2023-12-30T00:32:49.617Z,9
2023-12-30T00:34:50.672Z,9
2023-12-30T00:38:52.474Z,9
2023-12-30T00:40:53.540Z,9
2023-12-30T00:42:54.564Z,9
2023-12-30T00:44:55.489Z,9
2023-12-30T00:46:56.558Z,9
2023-12-30T00:48:58.879Z,9
2023-12-30T00:50:58.391Z,9
2023-12-30T00:53:00.098Z,9
2023-12-30T00:55:00.498Z,9
2023-12-30T00:59:02.357Z,9
2023-12-30T01:01:03.465Z,9
2023-12-30T01:03:04.674Z,9
2023-12-30T01:05:05.496Z,9
2023-12-30T01:07:06.522Z,9
2023-12-30T01:09:07.443Z,9
2023-12-30T01:11:08.769Z,9
2023-12-30T01:13:09.364Z,9
2023-12-30T01:15:10.452Z,9
2023-12-30T01:17:11.686Z,9
2023-12-30T01:19:12.611Z,9
2023-12-30T01:23:14.376Z,8
2023-12-30T01:25:15.551Z,8
2023-12-30T01:27:16.305Z,8
2023-12-30T01:29:17.434Z,8
2023-12-30T01:31:18.555Z,8
2023-12-30T01:33:19.529Z,8
2023-12-30T01:35:20.368Z,9
2023-12-30T01:37:21.487Z,9
2023-12-30T01:39:22.314Z,9
2023-12-30T01:41:23.491Z,9
2023-12-30T01:43:24.484Z,9
2023-12-30T01:45:26.452Z,9
2023-12-30T01:47:26.734Z,9
2023-12-30T01:49:27.681Z,9
2023-12-30T01:51:28.328Z,9
2023-12-30T01:53:29.506Z,9
2023-12-30T01:55:30.413Z,9
2023-12-30T01:57:31.410Z,9
2023-12-30T01:59:32.348Z,9
2023-12-30T02:01:33.589Z,9
2023-12-30T02:03:34.463Z,9
2023-12-30T02:05:35.519Z,9
2023-12-30T02:07:36.658Z,9
2023-12-30T02:09:37.267Z,9
2023-12-30T02:11:38.392Z,9
2023-12-30T02:13:39.660Z,9
2023-12-30T02:15:40.388Z,9
2023-12-30T02:17:41.631Z,9
2023-12-30T02:19:42.462Z,9
2023-12-30T02:21:43.346Z,9
2023-12-30T02:23:45.102Z,9
2023-12-30T02:25:45.882Z,9
2023-12-30T02:27:46.742Z,9
2023-12-30T02:29:47.436Z,8
2023-12-30T02:31:49.051Z,8
2023-12-30T02:33:49.481Z,8
2023-12-30T02:35:50.460Z,8
2023-12-30T02:37:51.454Z,8
2023-12-30T02:39:52.481Z,8
2023-12-30T02:41:53.431Z,8
2023-12-30T02:43:55.411Z,8
2023-12-30T02:45:55.370Z,8
2023-12-30T02:49:57.629Z,8
2023-12-30T02:51:58.391Z,8
2023-12-30T02:53:59.374Z,7
2023-12-30T02:58:01.616Z,7
2023-12-30T03:00:02.493Z,7
2023-12-30T03:02:03.626Z,7
2023-12-30T03:04:04.535Z,7
2023-12-30T03:06:05.447Z,7
2023-12-30T03:08:06.560Z,7
2023-12-30T03:10:07.669Z,7
2023-12-30T03:12:08.673Z,7
2023-12-30T03:14:09.314Z,7
2023-12-30T03:16:10.702Z,7
2023-12-30T03:18:11.507Z,7
2023-12-30T03:20:12.343Z,7
2023-12-30T03:22:13.341Z,7
2023-12-30T03:26:15.369Z,7
2023-12-30T03:28:16.385Z,7
2023-12-30T03:30:17.389Z,7
2023-12-30T03:32:18.531Z,7
2023-12-30T03:34:19.599Z,7
2023-12-30T03:36:20.421Z,7
2023-12-30T03:38:21.249Z,7
2023-12-30T03:40:22.457Z,7
2023-12-30T03:42:23.498Z,7
2023-12-30T03:44:24.455Z,7
2023-12-30T03:46:25.610Z,7
2023-12-30T03:48:26.401Z,7
2023-12-30T03:50:27.261Z,7
2023-12-30T03:52:28.495Z,7
2023-12-30T03:54:29.355Z,7
2023-12-30T03:56:30.390Z,7
2023-12-30T03:58:31.669Z,7
2023-12-30T04:00:32.339Z,7
2023-12-30T04:02:33.340Z,7
2023-12-30T04:04:34.445Z,7
2023-12-30T04:06:35.602Z,7
2023-12-30T04:08:36.737Z,7
2023-12-30T04:10:37.709Z,7
2023-12-30T04:12:38.329Z,7
2023-12-30T04:16:40.439Z,7
2023-12-30T04:18:41.528Z,7
2023-12-30T04:20:42.253Z,7
2023-12-30T04:22:43.457Z,7
2023-12-30T04:24:44.489Z,7
2023-12-30T04:26:45.375Z,7
2023-12-30T04:28:46.484Z,6
2023-12-30T04:30:47.400Z,6
2023-12-30T04:32:48.802Z,6
2023-12-30T04:34:49.434Z,6
2023-12-30T04:36:50.375Z,6
2023-12-30T04:38:51.516Z,6
2023-12-30T04:40:53.043Z,6
2023-12-30T04:42:53.327Z,6
2023-12-30T04:44:54.482Z,6
2023-12-30T04:46:56.132Z,6
2023-12-30T04:48:56.833Z,6
2023-12-30T04:50:57.617Z,6
2023-12-30T04:52:58.445Z,6
2023-12-30T04:54:59.785Z,6
2023-12-30T04:57:00.277Z,6
2023-12-30T04:59:01.342Z,6
2023-12-30T05:01:02.766Z,6
2023-12-30T05:03:03.968Z,6
2023-12-30T05:05:04.368Z,6
2023-12-30T05:07:05.540Z,6
2023-12-30T05:09:06.291Z,6
2023-12-30T05:11:07.355Z,6
2023-12-30T05:13:09.465Z,6
2023-12-30T05:15:09.301Z,6
2023-12-30T05:17:10.420Z,6
2023-12-30T05:19:11.611Z,6
2023-12-30T05:21:12.424Z,6
2023-12-30T05:23:13.397Z,6
2023-12-30T05:25:14.573Z,6
2023-12-30T05:27:15.252Z,6
2023-12-30T05:29:16.501Z,6
2023-12-30T05:31:17.516Z,6
2023-12-30T05:33:18.602Z,6
2023-12-30T05:35:20.704Z,6
2023-12-30T05:37:20.336Z,6
2023-12-30T05:39:21.359Z,6
2023-12-30T05:41:22.370Z,6
2023-12-30T05:43:27.100Z,6
2023-12-30T05:45:24.270Z,6
2023-12-30T05:47:25.833Z,6
2023-12-30T05:51:27.315Z,6
2023-12-30T05:53:28.351Z,6
2023-12-30T05:57:33.203Z,6
2023-12-30T05:59:31.608Z,6
2023-12-30T06:01:32.534Z,6
2023-12-30T06:03:33.468Z,6
2023-12-30T06:05:34.521Z,6
2023-12-30T06:07:35.497Z,6
2023-12-30T06:09:36.306Z,6
2023-12-30T06:11:37.271Z,6
2023-12-30T06:13:38.440Z,6
2023-12-30T06:17:40.579Z,6
2023-12-30T06:19:41.421Z,6
2023-12-30T06:21:42.270Z,6
2023-12-30T06:23:43.285Z,6
2023-12-30T06:25:44.886Z,6
2023-12-30T06:27:45.898Z,6
2023-12-30T06:29:46.368Z,6
2023-12-30T06:31:47.709Z,6
2023-12-30T06:33:48.423Z,6
2023-12-30T06:37:50.694Z,6
2023-12-30T06:39:51.414Z,6
2023-12-30T06:41:52.344Z,6
2023-12-30T06:43:53.298Z,6
2023-12-30T06:45:54.442Z,6
2023-12-30T06:47:55.515Z,6
2023-12-30T06:49:57.009Z,6
2023-12-30T06:55:59.411Z,6
2023-12-30T06:58:00.348Z,6
2023-12-30T07:00:01.433Z,6
2023-12-30T07:02:02.618Z,6
2023-12-30T07:04:03.434Z,6
2023-12-30T07:06:04.582Z,6
2023-12-30T07:08:05.307Z,6
2023-12-30T07:10:06.529Z,6
2023-12-30T07:12:07.336Z,6
2023-12-30T07:14:08.289Z,6
2023-12-30T07:16:09.395Z,6
2023-12-30T07:18:10.503Z,6
2023-12-30T07:20:11.673Z,6
2023-12-30T07:22:12.509Z,6
2023-12-30T07:24:13.246Z,6
2023-12-30T07:26:14.337Z,6
2023-12-30T07:28:15.302Z,6
2023-12-30T07:30:17.084Z,6
2023-12-30T07:32:17.430Z,6
2023-12-30T07:34:18.526Z,6
2023-12-30T07:36:19.280Z,6
2023-12-30T07:38:20.267Z,6
2023-12-30T07:40:21.646Z,7
2023-12-30T07:42:24.193Z,7
2023-12-30T07:44:23.298Z,7
2023-12-30T07:46:24.422Z,7
2023-12-30T07:48:25.518Z,7
2023-12-30T07:50:26.838Z,7
2023-12-30T07:52:27.361Z,7
2023-12-30T07:54:28.213Z,7
2023-12-30T07:56:29.314Z,7
2023-12-30T07:58:30.378Z,7
2023-12-30T08:00:31.358Z,7
2023-12-30T08:02:33.610Z,7
2023-12-30T08:04:33.267Z,7
2023-12-30T08:06:34.236Z,7
2023-12-30T08:08:35.400Z,7
2023-12-30T08:10:36.437Z,7
2023-12-30T08:12:37.346Z,7
2023-12-30T08:14:38.824Z,8
2023-12-30T08:16:39.877Z,8
2023-12-30T08:18:40.581Z,8
2023-12-30T08:20:41.307Z,8
2023-12-30T08:22:42.438Z,8
2023-12-30T08:24:43.419Z,8
2023-12-30T08:26:44.335Z,8
2023-12-30T08:28:46.002Z,8
2023-12-30T08:30:46.349Z,8
2023-12-30T08:32:47.471Z,8
2023-12-30T08:34:48.285Z,8
2023-12-30T08:36:49.286Z,8
2023-12-30T08:38:50.395Z,8
2023-12-30T08:40:51.329Z,8
2023-12-30T08:42:52.325Z,8
2023-12-30T08:44:53.353Z,8
2023-12-30T08:48:55.766Z,8
2023-12-30T08:50:56.923Z,8
2023-12-30T08:52:57.311Z,8
2023-12-30T08:55:00.628Z,8
2023-12-30T08:56:59.234Z,8
2023-12-30T08:59:00.415Z,8
2023-12-30T09:01:01.668Z,8
2023-12-30T09:03:02.936Z,8
2023-12-30T09:05:03.345Z,8
2023-12-30T09:07:04.284Z,8
2023-12-30T09:09:05.876Z,8
2023-12-30T09:11:06.266Z,8
2023-12-30T09:13:08.237Z,8
2023-12-30T09:15:08.335Z,8
2023-12-30T09:17:09.544Z,8
2023-12-30T09:19:10.696Z,8
2023-12-30T09:21:11.301Z,8
2023-12-30T09:23:12.280Z,8
2023-12-30T09:25:13.376Z,7
2023-12-30T09:27:14.324Z,7
2023-12-30T09:29:15.405Z,7
2023-12-30T09:31:16.412Z,8
2023-12-30T09:33:17.477Z,8
2023-12-30T09:35:18.384Z,8
2023-12-30T09:37:19.335Z,8
2023-12-30T09:39:20.690Z,8
2023-12-30T09:41:21.235Z,8
2023-12-30T09:43:22.309Z,8
2023-12-30T09:45:23.353Z,9
2023-12-30T09:47:24.427Z,9
2023-12-30T09:49:25.778Z,9
2023-12-30T09:51:26.214Z,9
2023-12-30T09:53:27.701Z,9
2023-12-30T09:55:28.704Z,10
2023-12-30T09:57:30.156Z,11
2023-12-30T09:59:30.344Z,13
2023-12-30T10:01:31.719Z,14
2023-12-30T10:03:32.533Z,15
2023-12-30T10:05:33.315Z,15
2023-12-30T10:07:34.355Z,16
2023-12-30T10:09:35.318Z,16
2023-12-30T10:11:36.265Z,16
2023-12-30T10:13:37.319Z,16
2023-12-30T10:15:38.339Z,16
2023-12-30T10:17:39.536Z,16
2023-12-30T10:19:40.268Z,16
2023-12-30T10:21:41.274Z,16
2023-12-30T10:23:42.212Z,16
2023-12-30T10:27:44.402Z,15
2023-12-30T10:29:56.860Z,14
2023-12-30T10:31:46.327Z,13
2023-12-30T10:33:47.481Z,13
2023-12-30T10:35:48.441Z,12
2023-12-30T10:37:49.112Z,12
2023-12-30T10:39:50.430Z,11
2023-12-30T10:41:51.318Z,11
2023-12-30T10:43:52.749Z,11
2023-12-30T10:45:54.789Z,11
2023-12-30T10:47:54.246Z,11
2023-12-30T10:49:55.901Z,11
2023-12-30T10:51:56.556Z,11
2023-12-30T10:53:57.305Z,11
2023-12-30T10:55:58.322Z,10
2023-12-30T10:57:59.225Z,10
2023-12-30T11:00:00.633Z,10
2023-12-30T11:02:01.439Z,10
2023-12-30T11:04:02.481Z,10
2023-12-30T11:06:03.421Z,10
2023-12-30T11:08:04.581Z,10
2023-12-30T11:10:05.393Z,10
2023-12-30T11:14:07.159Z,10
2023-12-30T11:18:10.465Z,10
2023-12-30T11:20:11.670Z,10
2023-12-30T11:22:11.313Z,10
2023-12-30T11:24:12.314Z,10
2023-12-30T11:26:13.213Z,10
2023-12-30T11:28:14.289Z,10
2023-12-30T11:30:15.210Z,10
2023-12-30T11:32:16.254Z,10
2023-12-30T11:34:18.100Z,10
2023-12-30T11:36:18.285Z,10
2023-12-30T11:38:19.160Z,10
2023-12-30T11:42:33.683Z,10
2023-12-30T11:44:22.158Z,9
2023-12-30T11:46:23.467Z,9
2023-12-30T11:48:24.669Z,9
2023-12-30T11:50:25.313Z,9
2023-12-30T11:52:28.360Z,9
2023-12-30T11:54:27.786Z,9
2023-12-30T11:56:28.372Z,9
2023-12-30T11:58:29.469Z,9
2023-12-30T12:00:30.787Z,9
2023-12-30T12:02:31.151Z,9
2023-12-30T12:04:32.471Z,9
2023-12-30T12:06:33.314Z,8
2023-12-30T12:08:34.148Z,8
2023-12-30T12:10:35.248Z,8
2023-12-30T12:12:36.602Z,8
2023-12-30T12:14:37.176Z,8
2023-12-30T12:16:38.562Z,8
2023-12-30T12:18:39.573Z,8
2023-12-30T12:20:40.610Z,8
2023-12-30T12:22:41.601Z,8
2023-12-30T12:24:42.144Z,8
2023-12-30T12:28:44.269Z,8
2023-12-30T12:30:45.481Z,8
2023-12-30T12:32:46.594Z,8
2023-12-30T12:36:48.146Z,8
2023-12-30T12:38:49.285Z,8
2023-12-30T12:40:50.242Z,8
2023-12-30T12:42:51.249Z,8
2023-12-30T12:44:52.296Z,8
2023-12-30T12:46:53.132Z,8
2023-12-30T12:48:54.485Z,8
2023-12-30T12:50:55.260Z,8
2023-12-30T12:52:56.135Z,9
2023-12-30T12:54:57.304Z,9
2023-12-30T12:56:58.116Z,9
2023-12-30T13:01:00.371Z,8
2023-12-30T13:03:02.680Z,8
2023-12-30T13:05:02.419Z,8
2023-12-30T13:07:03.328Z,8
2023-12-30T13:09:06.390Z,8
2023-12-30T13:11:07.294Z,8
2023-12-30T13:13:06.643Z,8
2023-12-30T13:15:07.221Z,8
2023-12-30T13:17:08.273Z,8
2023-12-30T13:19:09.526Z,8
2023-12-30T13:21:10.115Z,8
2023-12-30T13:25:12.736Z,8
2023-12-30T13:27:13.933Z,8
2023-12-30T13:29:14.209Z,8
2023-12-30T13:35:17.102Z,8
2023-12-30T13:37:18.119Z,8
2023-12-30T13:39:19.170Z,8
2023-12-30T13:41:20.140Z,8
2023-12-30T13:43:21.346Z,8
2023-12-30T13:45:22.214Z,8
2023-12-30T13:47:23.410Z,8
2023-12-30T13:49:26.511Z,8
2023-12-30T13:51:25.223Z,8
2023-12-30T13:53:26.293Z,8
2023-12-30T13:57:28.322Z,8
2023-12-30T13:59:29.434Z,8
2023-12-30T14:01:30.253Z,8
2023-12-30T14:03:31.288Z,8
2023-12-30T14:05:32.202Z,8
2023-12-30T14:07:33.256Z,8
2023-12-30T14:09:34.062Z,8
2023-12-30T14:11:35.678Z,8
2023-12-30T14:13:36.229Z,8
2023-12-30T14:15:37.160Z,8
2023-12-30T14:17:38.297Z,8
2023-12-30T14:19:39.548Z,8
2023-12-30T14:21:41.724Z,8
2023-12-30T14:23:41.842Z,8
2023-12-30T14:25:42.417Z,8
2023-12-30T14:27:43.543Z,8
2023-12-30T14:29:44.314Z,8
2023-12-30T14:31:45.103Z,8
2023-12-30T14:33:47.191Z,8
2023-12-30T14:35:47.250Z,8
2023-12-30T14:37:48.244Z,8
2023-12-30T14:39:49.266Z,8
2023-12-30T14:41:50.178Z,8
2023-12-30T14:43:51.192Z,8
2023-12-30T14:45:52.102Z,8
2023-12-30T14:47:53.546Z,8
2023-12-30T14:49:54.272Z,8
2023-12-30T14:51:55.141Z,8
2023-12-30T14:53:56.116Z,8
2023-12-30T14:55:57.235Z,7
2023-12-30T14:57:58.394Z,7
2023-12-30T14:59:59.355Z,7
2023-12-30T15:04:01.418Z,7
2023-12-30T15:06:02.299Z,7
2023-12-30T15:10:04.267Z,7
2023-12-30T15:12:05.226Z,7
2023-12-30T15:14:06.150Z,7
2023-12-30T15:16:07.227Z,7
2023-12-30T15:18:08.560Z,7
2023-12-30T15:20:09.905Z,7
2023-12-30T15:22:10.915Z,7
2023-12-30T15:24:11.660Z,7
2023-12-30T15:26:12.122Z,7
2023-12-30T15:28:13.189Z,7
2023-12-30T15:30:14.220Z,7
2023-12-30T15:32:15.318Z,7
2023-12-30T15:34:16.474Z,7
2023-12-30T15:36:17.176Z,7
2023-12-30T15:38:18.349Z,7
2023-12-30T15:40:19.172Z,7
2023-12-30T15:42:20.159Z,7
2023-12-30T15:44:21.152Z,7
2023-12-30T15:46:23.676Z,7
2023-12-30T15:48:23.641Z,7
2023-12-30T15:50:24.216Z,7
2023-12-30T15:52:25.261Z,7
2023-12-30T15:54:26.231Z,7
2023-12-30T15:56:27.162Z,7
2023-12-30T15:58:29.098Z,6
2023-12-30T16:00:29.167Z,6
2023-12-30T16:02:30.068Z,6
2023-12-30T16:04:31.165Z,6
2023-12-30T16:06:32.069Z,6
2023-12-30T16:08:33.096Z,6
2023-12-30T16:10:34.230Z,6
2023-12-30T16:14:36.145Z,6
2023-12-30T16:16:37.248Z,6
2023-12-30T16:18:38.274Z,6
2023-12-30T16:20:40.541Z,6
2023-12-30T16:22:40.252Z,6
2023-12-30T16:24:41.080Z,6
2023-12-30T16:26:42.528Z,6
2023-12-30T16:30:44.210Z,6
2023-12-30T16:32:45.569Z,6
2023-12-30T16:34:47.163Z,6
2023-12-30T16:36:47.141Z,6
2023-12-30T16:38:48.201Z,6
2023-12-30T16:40:49.242Z,6
2023-12-30T16:42:50.265Z,6
2023-12-30T16:44:51.218Z,6
2023-12-30T16:46:52.170Z,6
2023-12-30T16:48:53.494Z,6
2023-12-30T16:50:54.304Z,5
2023-12-30T16:52:55.115Z,5
2023-12-30T16:54:56.137Z,5
2023-12-30T16:56:57.385Z,5
2023-12-30T16:58:58.048Z,5
2023-12-30T17:03:01.266Z,5
2023-12-30T17:05:01.316Z,5
2023-12-30T17:07:02.340Z,5
2023-12-30T17:09:03.424Z,5
2023-12-30T17:11:04.162Z,5
2023-12-30T17:13:05.668Z,5
2023-12-30T17:15:06.217Z,5
2023-12-30T17:17:07.141Z,5
2023-12-30T17:19:08.264Z,5
2023-12-30T17:21:09.657Z,5
2023-12-30T17:23:10.480Z,5
2023-12-30T17:25:11.204Z,5
2023-12-30T17:27:12.227Z,5
2023-12-30T17:29:13.160Z,5
2023-12-30T17:31:14.458Z,5
2023-12-30T17:33:15.276Z,5
2023-12-30T17:35:16.258Z,5
2023-12-30T17:37:17.192Z,5
2023-12-30T17:39:18.138Z,5
2023-12-30T17:41:19.290Z,5
2023-12-30T17:43:20.152Z,5
2023-12-30T17:45:21.298Z,5
2023-12-30T17:47:22.194Z,5
2023-12-30T17:49:23.091Z,5
2023-12-30T17:51:24.238Z,5
2023-12-30T17:53:25.089Z,5
2023-12-30T17:55:26.134Z,5
2023-12-30T17:57:27.110Z,5
2023-12-30T17:59:28.078Z,5
2023-12-30T18:01:29.259Z,5
2023-12-30T18:03:30.227Z,5
2023-12-30T18:05:31.187Z,5
2023-12-30T18:07:32.227Z,5
2023-12-30T18:09:33.088Z,5
2023-12-30T18:11:34.106Z,5
2023-12-30T18:13:35.116Z,5
2023-12-30T18:15:36.134Z,5
2023-12-30T18:17:37.513Z,5
2023-12-30T18:19:38.112Z,5
2023-12-30T18:21:39.188Z,5
2023-12-30T18:25:41.173Z,5
2023-12-30T18:27:42.052Z,5
2023-12-30T18:29:43.175Z,5
2023-12-30T18:31:44.206Z,5
2023-12-30T18:33:45.273Z,5
2023-12-30T18:35:46.060Z,5
2023-12-30T18:37:47.204Z,5
2023-12-30T18:39:48.209Z,5
2023-12-30T18:41:49.073Z,5
2023-12-30T18:43:50.127Z,5
2023-12-30T18:45:51.175Z,5
2023-12-30T18:47:52.330Z,5
2023-12-30T18:49:53.493Z,5
2023-12-30T18:51:54.172Z,5
2023-12-30T18:53:55.091Z,5
2023-12-30T18:55:56.048Z,5
2023-12-30T18:57:57.044Z,5
2023-12-30T18:59:58.089Z,5
2023-12-30T19:01:59.125Z,5
2023-12-30T19:04:00.606Z,5
2023-12-30T19:06:01.345Z,5
2023-12-30T19:08:02.337Z,5
2023-12-30T19:12:04.256Z,5
2023-12-30T19:14:05.054Z,5
2023-12-30T19:16:06.137Z,5
2023-12-30T19:18:07.248Z,5
2023-12-30T19:22:09.552Z,5
2023-12-30T19:24:10.160Z,5
2023-12-30T19:26:11.579Z,5
2023-12-30T19:28:12.202Z,5
2023-12-30T19:30:13.526Z,5
2023-12-30T19:32:14.203Z,5
2023-12-30T19:34:15.720Z,5
2023-12-30T19:36:16.581Z,5
2023-12-30T19:38:17.100Z,5
2023-12-30T19:40:18.243Z,5
2023-12-30T19:42:19.120Z,5
2023-12-30T19:44:20.416Z,5
2023-12-30T19:46:21.414Z,5
2023-12-30T19:48:23.004Z,5
2023-12-30T19:50:23.093Z,5
2023-12-30T19:52:24.168Z,5
2023-12-30T19:54:25.201Z,5
2023-12-30T19:56:26.139Z,5
2023-12-30T19:58:27.127Z,5
2023-12-30T20:00:28.081Z,5
2023-12-30T20:02:29.080Z,5
2023-12-30T20:04:30.390Z,5
2023-12-30T20:06:31.260Z,5
2023-12-30T20:08:32.059Z,5
2023-12-30T20:10:33.220Z,5
2023-12-30T20:12:34.187Z,5
2023-12-30T20:14:35.142Z,5
2023-12-30T20:16:36.684Z,5
2023-12-30T20:18:37.425Z,5
2023-12-30T20:20:38.104Z,5
2023-12-30T20:22:39.344Z,5
2023-12-30T20:24:40.191Z,5
2023-12-30T20:26:41.144Z,5
2023-12-30T20:28:42.215Z,5
2023-12-30T20:30:43.146Z,5
2023-12-30T20:32:44.210Z,5
2023-12-30T20:34:45.388Z,5
2023-12-30T20:38:47.222Z,5
2023-12-30T20:40:48.333Z,5
2023-12-30T20:42:49.156Z,5
2023-12-30T20:44:50.260Z,5
2023-12-30T20:46:51.127Z,5
2023-12-30T20:48:52.346Z,5
2023-12-30T20:50:53.072Z,5
2023-12-30T20:52:54.090Z,5
2023-12-30T20:54:55.113Z,5
2023-12-30T20:56:56.056Z,5
2023-12-30T20:58:57.085Z,5
2023-12-30T21:00:58.177Z,5
2023-12-30T21:02:59.076Z,5
2023-12-30T21:05:00.265Z,5
2023-12-30T21:07:01.153Z,5
2023-12-30T21:09:02.085Z,5
2023-12-30T21:11:03.433Z,5
2023-12-30T21:13:04.905Z,5
2023-12-30T21:15:05.060Z,5
2023-12-30T21:17:06.876Z,5
2023-12-30T21:19:07.699Z,5
2023-12-30T21:21:08.586Z,5
2023-12-30T21:23:09.203Z,5
2023-12-30T21:25:23.745Z,5
2023-12-30T21:27:11.592Z,5
2023-12-30T21:29:12.158Z,5
2023-12-30T21:31:13.415Z,5
2023-12-30T21:33:14.640Z,5
2023-12-30T21:35:15.254Z,5
2023-12-30T21:37:16.354Z,5
2023-12-30T21:39:17.160Z,5
2023-12-30T21:41:18.026Z,5
2023-12-30T21:43:19.305Z,5
2023-12-30T21:45:21.320Z,5
2023-12-30T21:47:21.193Z,5
2023-12-30T21:49:22.283Z,5
2023-12-30T21:51:23.141Z,4
2023-12-30T21:53:24.119Z,4
2023-12-30T21:55:25.215Z,4
2023-12-30T21:57:26.046Z,4
2023-12-30T21:59:27.010Z,4
2023-12-30T22:01:28.353Z,4
2023-12-30T22:03:29.163Z,4
2023-12-30T22:05:30.219Z,4
2023-12-30T22:07:31.063Z,4
2023-12-30T22:09:32.082Z,4
2023-12-30T22:11:33.090Z,4
2023-12-30T22:13:34.243Z,4
2023-12-30T22:15:35.277Z,4
2023-12-30T22:19:37.122Z,4
2023-12-30T22:21:38.205Z,4
2023-12-30T22:23:39.105Z,4
2023-12-30T22:25:40.170Z,4
2023-12-30T22:27:41.202Z,4
2023-12-30T22:29:42.106Z,4
2023-12-30T22:31:43.264Z,4
2023-12-30T22:33:45.118Z,4
2023-12-30T22:35:45.119Z,4
2023-12-30T22:37:46.286Z,4
2023-12-30T22:39:47.430Z,4
2023-12-30T22:41:48.373Z,4
2023-12-30T22:43:49.178Z,4
2023-12-30T22:45:50.420Z,4
2023-12-30T22:47:51.381Z,4
2023-12-30T22:49:52.216Z,4
2023-12-30T22:51:53.216Z,4
2023-12-30T22:53:54.133Z,4
2023-12-30T22:55:55.170Z,4
2023-12-30T22:57:56.106Z,4
2023-12-30T22:59:57.105Z,4
2023-12-30T23:01:58.228Z,4
2023-12-30T23:03:59.226Z,4
2023-12-30T23:06:00.209Z,4
2023-12-30T23:08:01.205Z,4
2023-12-30T23:10:02.190Z,4
2023-12-30T23:12:03.134Z,4
2023-12-30T23:14:04.164Z,4
2023-12-30T23:16:05.532Z,4
2023-12-30T23:18:06.294Z,4
2023-12-30T23:20:07.234Z,4
2023-12-30T23:22:08.215Z,4
2023-12-30T23:24:09.202Z,4
2023-12-30T23:26:10.163Z,4
2023-12-30T23:28:11.146Z,4
2023-12-30T23:30:12.374Z,4
2023-12-30T23:32:13.107Z,4
2023-12-30T23:34:14.196Z,4
2023-12-30T23:36:15.177Z,4
2023-12-30T23:38:16.088Z,4
2023-12-30T23:40:17.181Z,4
2023-12-30T23:42:18.124Z,4
2023-12-30T23:44:19.196Z,3
2023-12-30T23:46:20.320Z,3
2023-12-30T23:48:21.349Z,3
2023-12-30T23:50:21.986Z,3
2023-12-30T23:52:23.374Z,3
2023-12-30T23:54:24.079Z,3
2023-12-30T23:56:25.125Z,3
2023-12-30T23:58:26.126Z,3
